Flight Track Log - Related Links

Times and Time Zones

All times are in EDT time to prevent confusion due to time zone crossing. See the N5936Q flight status page for this flight to view local times or setup timezone preferences in your user account.

Time Position Orientation Groundspeed Altitude Reporting Facility
EDT Latitude Longitude Course Direction KTS MPH feet Rate Location/Type
Sat 04:29:10 PM 38.6728 -86.9611 93° East 100 115 4,800  Level Indianapolis Center
Sat 04:30:12 PM 38.6722 -86.9264 91° East 98 113 5,500 732 Climbing Indianapolis Center
Sat 04:31:13 PM 38.6628 -86.8961 112° Southeast 81 93 6,300 537 Climbing Indianapolis Center
Sat 04:32:15 PM 38.6611 -86.8631 94° East 87 100 6,600 390 Climbing Indianapolis Center
Sat 04:33:00 PM 38.7794 -86.9123 65° Northeast  Level Estimated
Sat 04:33:16 PM 38.6600 -86.8317 93° East 102 117 7,100  Level Indianapolis Center
Sat 04:34:18 PM 38.6586 -86.7919 93° East 104 120 7,600 585 Climbing Indianapolis Center
Sat 04:35:19 PM 38.6556 -86.7575 96° East 94 108 8,300 634 Climbing Indianapolis Center
Sat 04:36:21 PM 38.6536 -86.7242 94° East 93 107 8,900 537 Climbing Indianapolis Center
Sat 04:37:22 PM 38.6458 -86.6956 109° East 88 101 9,400 390 Climbing Indianapolis Center
Sat 04:38:24 PM 38.6353 -86.6625 112° Southeast 95 109 9,700 390 Climbing Indianapolis Center
Sat 04:39:25 PM 38.6244 -86.6308 114° Southeast 97 112 10,200 439 Climbing Indianapolis Center
Sat 04:40:27 PM 38.6219 -86.5978 96° East 94 108 10,600 341 Climbing Indianapolis Center
Sat 04:41:28 PM 38.6181 -86.5664 99° East 91 105 10,900 390 Climbing Indianapolis Center
Sat 04:42:30 PM 38.6000 -86.5300 122° Southeast 98 113 11,400 341 Climbing Indianapolis Center
Sat 04:43:31 PM 38.5847 -86.4972 121° Southeast 105 121 11,600 146 Climbing Indianapolis Center
Sat 04:44:33 PM 38.5844 -86.4569 90° East 113 130 11,700 49 Climbing Indianapolis Center
Sat 04:45:34 PM 38.5872 -86.4161 85° East 116 133 11,700 -49 Level Indianapolis Center
Sat 04:46:35 PM 38.5864 -86.3739 91° East 118 136 11,600 -49 Descending Indianapolis Center
Sat 04:47:37 PM 38.5889 -86.3308 86° East 121 139 11,600  Level Indianapolis Center
Sat 04:48:39 PM 38.5922 -86.2889 84° East 121 139 11,600  Level Indianapolis Center
Sat 04:49:40 PM 38.5958 -86.2467 84° East 120 138 11,600  Level Indianapolis Center
Sat 04:50:42 PM 38.5833 -86.2036 110° East 127 146 11,600  Level Indianapolis Center
Sat 04:51:43 PM 38.5783 -86.1614 99° East 123 142 11,600 98 Level Indianapolis Center
Sat 04:52:45 PM 38.5786 -86.1125 90° East 116 133 11,800 49 Climbing Indianapolis Center
Sat 04:53:46 PM 38.5878 -86.0719 74° East 117 135 11,700 -98 Descending Indianapolis Center
Sat 04:54:48 PM 38.5967 -86.0283 75° East 123 142 11,600 -49 Descending Indianapolis Center
Sat 04:55:49 PM 38.6056 -85.9842 76° East 127 146 11,600 -49 Level Indianapolis Center
Sat 04:56:51 PM 38.6136 -85.9422 76° East 124 143 11,500 -98 Descending Indianapolis Center
Sat 04:57:52 PM 38.6161 -85.8975 86° East 124 143 11,400 -49 Descending Indianapolis Center
Sat 04:58:54 PM 38.6197 -85.8539 84° East 123 142 11,400 -49 Level Indianapolis Center
Sat 04:59:55 PM 38.6256 -85.8108 80° East 124 143 11,300 -49 Descending Indianapolis Center
Sat 05:00:57 PM 38.6319 -85.7642 80° East 122 140 11,300 -49 Level Indianapolis Center
Sat 05:01:58 PM 38.6383 -85.7211 79° East 123 142 11,200  Descending Indianapolis Center
Sat 05:03:00 PM 38.6450 -85.6792 78° East 122 140 11,300  Climbing Indianapolis Center
Sat 05:04:01 PM 38.6547 -85.6397 72° East 120 138 11,200 49 Descending Indianapolis Center
Sat 05:05:03 PM 38.6583 -85.5961 84° East 124 143 11,400 98 Climbing Indianapolis Center
Sat 05:06:04 PM 38.6597 -85.5475 88° East 117 135 11,400  Level Indianapolis Center
Sat 05:07:06 PM 38.6608 -85.5044 88° East 120 138 11,400  Level Indianapolis Center
Sat 05:08:08 PM 38.6642 -85.4636 84° East 118 136 11,400  Level Indianapolis Center
Sat 05:09:09 PM 38.6650 -85.4206 89° East 121 139 11,400 49 Level Indianapolis Center
Sat 05:10:11 PM 38.6664 -85.3797 87° East 117 135 11,500 49 Climbing Indianapolis Center
Sat 05:11:12 PM 38.6686 -85.3397 86° East 115 132 11,500 49 Level Indianapolis Center
Sat 05:12:14 PM 38.6733 -85.2981 82° East 120 138 11,600 49 Climbing Indianapolis Center
Sat 05:13:15 PM 38.6783 -85.2581 81° East 116 133 11,600 -49 Level Indianapolis Center
Sat 05:14:17 PM 38.6867 -85.2086 78° East 118 136 11,500 -49 Descending Indianapolis Center
Sat 05:15:18 PM 38.6919 -85.1672 81° East 118 136 11,500 49 Level Indianapolis Center
Sat 05:16:19 PM 38.6969 -85.1267 81° East 116 133 11,600 49 Climbing Indianapolis Center
Sat 05:17:21 PM 38.7014 -85.0853 82° East 118 136 11,600 -49 Level Indianapolis Center
Sat 05:18:22 PM 38.7078 -85.0414 79° East 123 142 11,500 -49 Descending Indianapolis Center
Sat 05:19:24 PM 38.7128 -84.9997 81° East 120 138 11,500  Level Indianapolis Center
Sat 05:20:25 PM 38.7211 -84.9583 76° East 121 139 11,500 49 Level Indianapolis Center
Sat 05:21:27 PM 38.7275 -84.9192 78° East 115 132 11,600 49 Climbing Indianapolis Center
Sat 05:22:28 PM 38.7350 -84.8669 80° East 123 142 11,600 -49 Level Indianapolis Center
Sat 05:23:30 PM 38.7433 -84.8269 75° East 119 137 11,500 -98 Descending Indianapolis Center
Sat 05:24:31 PM 38.7508 -84.7842 77° East 122 140 11,400  Descending Indianapolis Center
Sat 05:25:33 PM 38.7536 -84.7419 85° East 121 139 11,500 49 Climbing Indianapolis Center
Sat 05:26:34 PM 38.7547 -84.7003 88° East 118 136 11,500 -49 Level Indianapolis Center
Sat 05:27:35 PM 38.7564 -84.6575 87° East 120 138 11,400  Descending Indianapolis Center
Sat 05:28:37 PM 38.7600 -84.6128 84° East 126 145 11,500 -293 Climbing Indianapolis Center
Sat 05:29:38 PM 38.7661 -84.5667 80° East 131 151 10,800 -732 Descending Indianapolis Center
Sat 05:30:40 PM 38.7783 -84.5119 74° East 140 161 10,000 -732 Descending Indianapolis Center
Sat 05:31:41 PM 38.7906 -84.4611 73° East 146 168 9,300 -683 Descending Indianapolis Center
Sat 05:32:43 PM 38.8019 -84.4106 74° East 148 170 8,600 -683 Descending Indianapolis Center
Sat 05:33:44 PM 38.8189 -84.3628 66° East 145 167 7,900 -732 Descending Indianapolis Center
Sat 05:34:46 PM 38.8439 -84.3239 50° Northeast 142 163 7,100 -829 Descending Indianapolis Center
Sat 05:35:47 PM 38.8756 -84.2939 36° Northeast 141 162 6,200 -836 Descending Indianapolis Center
Sat 05:36:48 PM 38.9058 -84.2497 49° Northeast 140 161 5,400 -390 Descending Indianapolis Center
Sat 05:37:50 PM 38.9289 -84.2114 52° Northeast 136 157 5,400  Level Indianapolis Center
Sat 05:38:51 PM 38.9575 -84.1792 41° Northeast 136 157 5,400 49 Level Indianapolis Center
Sat 05:39:52 PM 38.9864 -84.1469 41° Northeast 136 157 5,500  Climbing Indianapolis Center
Sat 05:40:54 PM 39.0147 -84.1158 40° Northeast 133 153 5,400 -49 Descending Indianapolis Center
Sat 05:41:55 PM 39.0464 -84.0839 38° Northeast 141 162 5,400  Level Indianapolis Center
Sat 05:42:56 PM 39.0794 -84.0569 32° Northeast 140 161 5,400 49 Level Indianapolis Center
Sat 05:43:58 PM 39.1114 -84.0286 35° Northeast 139 160 5,500 49 Climbing Indianapolis Center
Sat 05:44:59 PM 39.1425 -83.9958 39° Northeast 141 162 5,500  Level Indianapolis Center
Sat 05:46:01 PM 39.1678 -83.9611 47° Northeast 134 154 5,500  Level Indianapolis Center
Sat 05:47:02 PM 39.1986 -83.9281 40° Northeast 138 159 5,500 -49 Level Indianapolis Center
Sat 05:48:03 PM 39.2319 -83.9022 31° Northeast 139 160 5,400 -49 Descending Indianapolis Center
Sat 05:49:05 PM 39.2661 -83.8783 28° Northeast 139 160 5,400  Level Indianapolis Center
Sat 05:49:54 PM 39.2944 -83.8464 41° Northeast 143 165 5,400  Level Indianapolis Center
Sat 05:50:55 PM 39.3264 -83.8125 39° Northeast 139 160 5,400  Level Indianapolis Center
Sat 05:51:56 PM 39.3561 -83.7811 39° Northeast 138 159 5,400  Level Indianapolis Center
Sat 05:52:51 PM 39.3814 -83.7494 44° Northeast 138 159 5,400 52 Level Indianapolis Center
Sat 05:53:52 PM 39.4111 -83.7178 39° Northeast 136 157 5,500  Climbing Indianapolis Center
Sat 05:55:10 PM 39.4478 -83.6739 43° Northeast 141 162 5,400 -43 Descending Indianapolis Center
Sat 05:56:11 PM 39.4794 -83.6428 37° Northeast 139 160 5,400  Level Indianapolis Center
Sat 05:57:15 PM 39.5106 -83.6125 37° Northeast 139 160 5,400 -50 Level Indianapolis Center
Sat 05:58:12 PM 39.5392 -83.5742 46° Northeast 137 158 5,300 -102 Descending Indianapolis Center
Sat 05:59:13 PM 39.5689 -83.5400 42° Northeast 139 160 5,200 -246 Descending Indianapolis Center
Sat 06:00:14 PM 39.6022 -83.5117 33° Northeast 147 169 4,800 -496 Descending Indianapolis Center
Sat 06:01:14 PM 39.6342 -83.4750 41° Northeast 160 184 4,200 -645 Descending Indianapolis Center
Sat 06:02:15 PM 39.6703 -83.4386 38° Northeast 155 178 3,500 -541 Descending Indianapolis Center
Sat 06:03:16 PM 39.6983 -83.4014 46° Northeast 146 168 3,100 -231 Descending Indianapolis Center
Sat 06:04:25 PM 39.7317 -83.3600 44° Northeast 146 168 3,000 -50 Descending Indianapolis Center
Sat 06:05:17 PM 39.7594 -83.3356 34° Northeast 133 153 3,000  Level Indianapolis Center
Sat 06:06:12 PM 39.7844 -83.3086 40° Northeast 136 157 3,000 52 Level Indianapolis Center
Sat 06:07:12 PM 39.8178 -83.2800 33° Northeast 138 159 3,100 -47 Climbing Indianapolis Center
Sat 06:08:19 PM 39.8517 -83.2461 38° Northeast 141 162 2,900 -155 Descending Indianapolis Center
Sat 06:09:08 PM 39.8822 -83.2281 24° Northeast 148 170 2,800 -58 Descending Indianapolis Center
Sat 06:10:02 PM 39.9108 -83.2069 30° Northeast 135 155 2,800  Level Indianapolis Center
Sat 06:10:33 PM 39.9247 -83.1961 31° Northeast 139 160 2,800 98 Level Indianapolis Center
Sat 06:11:03 PM 39.9439 -83.1836 27° Northeast 138 159 2,900 197 Climbing Indianapolis Center
Sat 06:11:34 PM 39.9578 -83.1711 35° Northeast 137 158 3,000 98 Climbing Indianapolis Center
Sat 06:12:04 PM 39.9792 -83.1578 26° Northeast 138 159 3,000 -97 Level Indianapolis Center
Sat 06:12:36 PM 39.9917 -83.1481 31° Northeast 137 158 2,900 -188 Descending Indianapolis Center

Login

Don't have an account? Register now (free) for customized features, flight alerts, and more!